Camp Murray, Washington
Current Conditions -  °F | °C
As of 2:53 PM on Monday 24 Nov 2014 (Local Time) from KTIW Reporting Station
Light Rain Light Rain  
Wind Chill: 47°   Ceiling: 4900
Heat Index: 49°   Visibility: 10mi
Dew Point: 45°   Wind: 6mph
Humidity: 86%   Direction: 200°SSW
Pressure: 30.21"   Gusts: NA
Location:  47.25°N, 122.44°W
Report Text: KTIW 242253Z 20005KT 10SM -RA BKN049 BKN060 OVC075 09/07 A3021 RMK AO2 RAB03 SLP233 P0002 T00940072
Loading
Personal Weather Stations






























Interactive Weather Map New forecast layout! Learn more

10-Day Weather Forecast

Advertisements
Track Severe Weather on mobile